createdAt,value
2023-03-22T00:01:12.080Z,1.63
2023-03-22T00:03:39.888Z,1.58
2023-03-22T00:06:07.459Z,1.70
2023-03-22T00:08:34.502Z,1.67
2023-03-22T00:11:01.738Z,1.63
2023-03-22T00:13:29.493Z,1.95
2023-03-22T00:15:57.915Z,1.30
2023-03-22T00:18:25.059Z,2.80
2023-03-22T00:20:54.295Z,1.67
2023-03-22T00:23:21.760Z,3.47
2023-03-22T00:25:48.821Z,1.38
2023-03-22T00:28:16.632Z,1.60
2023-03-22T00:30:48.740Z,1.83
2023-03-22T00:33:15.830Z,1.95
2023-03-22T00:35:55.057Z,2.10
2023-03-22T00:38:32.556Z,1.60
2023-03-22T00:41:15.233Z,1.90
2023-03-22T00:43:45.493Z,1.60
2023-03-22T00:46:14.031Z,1.65
2023-03-22T00:48:41.793Z,1.63
2023-03-22T00:51:10.051Z,1.63
2023-03-22T00:53:41.115Z,1.38
2023-03-22T00:56:11.123Z,1.67
2023-03-22T00:59:05.789Z,2.08
2023-03-22T01:01:32.832Z,1.25
2023-03-22T01:04:00.108Z,1.67
2023-03-22T01:06:27.131Z,1.98
2023-03-22T01:08:55.392Z,1.98
2023-03-22T01:11:22.370Z,2.20
2023-03-22T01:13:50.031Z,1.90
2023-03-22T01:16:18.112Z,1.63
2023-03-22T01:18:45.772Z,1.95
2023-03-22T01:21:13.549Z,1.65
2023-03-22T01:23:40.836Z,2.92
2023-03-22T01:26:08.000Z,1.88
2023-03-22T01:28:36.594Z,1.50
2023-03-22T01:31:04.334Z,2.20
2023-03-22T01:33:31.596Z,2.20
2023-03-22T01:35:59.238Z,2.25
2023-03-22T01:38:27.800Z,2.00
2023-03-22T01:40:58.702Z,1.92
2023-03-22T01:43:27.989Z,2.08
2023-03-22T01:45:57.194Z,2.05
2023-03-22T01:48:42.329Z,1.98
2023-03-22T01:51:13.210Z,2.75
2023-03-22T01:54:03.144Z,2.13
2023-03-22T01:56:33.797Z,2.15
2023-03-22T01:59:02.015Z,2.75
2023-03-22T02:01:39.567Z,3.00
2023-03-22T02:04:12.545Z,2.08
2023-03-22T02:06:40.351Z,2.00
2023-03-22T02:09:22.349Z,1.90
2023-03-22T02:12:04.290Z,1.65
2023-03-22T02:15:11.313Z,2.28
2023-03-22T02:18:42.841Z,1.95
2023-03-22T02:21:19.061Z,2.47
2023-03-22T02:24:01.166Z,2.33
2023-03-22T02:26:59.550Z,2.83
2023-03-22T02:29:46.274Z,3.13
2023-03-22T02:32:44.194Z,2.35
2023-03-22T02:35:47.038Z,2.58
2023-03-22T02:38:42.647Z,3.10
2023-03-22T02:41:12.749Z,2.63
2023-03-22T02:43:57.870Z,2.53
2023-03-22T02:46:36.768Z,2.88
2023-03-22T02:49:09.952Z,2.75
2023-03-22T02:51:44.622Z,2.85
2023-03-22T02:54:18.776Z,2.58
2023-03-22T02:56:54.360Z,3.25
2023-03-22T02:59:22.368Z,2.95
2023-03-22T03:01:52.158Z,3.03
2023-03-22T03:04:33.740Z,3.00
2023-03-22T03:07:04.399Z,3.05
2023-03-22T03:09:32.374Z,3.58
2023-03-22T03:12:00.468Z,2.92
2023-03-22T03:14:28.629Z,3.50
2023-03-22T03:17:35.442Z,3.33
2023-03-22T03:20:22.327Z,2.75
2023-03-22T03:23:01.201Z,4.22
2023-03-22T03:28:39.931Z,3.20
2023-03-22T03:31:09.892Z,3.88
2023-03-22T03:33:46.389Z,3.47
2023-03-22T03:36:16.461Z,4.28
2023-03-22T03:38:48.017Z,4.50
2023-03-22T03:41:18.181Z,4.35
2023-03-22T03:43:46.273Z,4.18
2023-03-22T03:46:13.962Z,4.55
2023-03-22T03:48:43.260Z,5.75
2023-03-22T03:51:11.083Z,5.03
2023-03-22T03:53:38.751Z,5.80
2023-03-22T03:56:06.325Z,4.78
2023-03-22T04:01:05.903Z,5.70
2023-03-22T04:03:36.561Z,5.97
2023-03-22T04:06:29.301Z,6.22
2023-03-22T04:09:02.090Z,6.75
2023-03-22T04:11:34.374Z,6.10
2023-03-22T04:14:02.980Z,7.53
2023-03-22T04:16:30.146Z,7.45
2023-03-22T04:18:57.293Z,7.55
2023-03-22T04:21:24.394Z,7.15
2023-03-22T04:24:00.401Z,6.75
2023-03-22T04:26:30.102Z,7.60
2023-03-22T04:29:11.579Z,6.82
2023-03-22T04:31:44.391Z,7.82
2023-03-22T04:34:19.654Z,6.82
2023-03-22T04:36:54.676Z,7.13
2023-03-22T04:39:28.493Z,7.13
2023-03-22T04:42:15.569Z,7.28
2023-03-22T04:44:43.319Z,8.05
2023-03-22T04:47:10.264Z,7.50
2023-03-22T04:49:37.735Z,7.28
2023-03-22T04:52:04.928Z,7.82
2023-03-22T04:54:36.462Z,7.78
2023-03-22T04:57:04.482Z,7.05
2023-03-22T04:59:37.710Z,7.53
2023-03-22T05:02:04.750Z,6.40
2023-03-22T05:04:38.919Z,6.97
2023-03-22T05:07:14.553Z,6.40
2023-03-22T05:09:47.579Z,6.07
2023-03-22T05:12:15.828Z,6.05
2023-03-22T05:15:03.998Z,6.70
2023-03-22T05:17:35.141Z,6.20
2023-03-22T05:20:09.511Z,6.32
2023-03-22T05:22:41.321Z,6.15
2023-03-22T05:25:11.828Z,7.05
2023-03-22T05:27:43.059Z,5.63
2023-03-22T05:30:31.939Z,5.75
2023-03-22T05:33:05.547Z,5.35
2023-03-22T05:38:07.000Z,5.18
2023-03-22T05:40:36.822Z,6.35
2023-03-22T05:43:04.164Z,4.80
2023-03-22T05:45:32.817Z,5.85
2023-03-22T05:48:11.464Z,4.75
2023-03-22T05:50:39.283Z,5.03
2023-03-22T05:53:07.237Z,4.75
2023-03-22T05:55:46.814Z,3.70
2023-03-22T05:58:19.322Z,5.20
2023-03-22T06:00:51.843Z,4.50
2023-03-22T06:03:45.514Z,3.97
2023-03-22T06:06:24.241Z,3.35
2023-03-22T06:09:14.179Z,4.13
2023-03-22T06:14:11.459Z,3.75
2023-03-22T06:16:53.386Z,3.35
2023-03-22T06:19:20.805Z,3.80
2023-03-22T06:21:48.567Z,3.80
2023-03-22T06:24:17.232Z,3.05
2023-03-22T06:26:44.556Z,3.15
2023-03-22T06:29:12.475Z,3.80
2023-03-22T06:31:39.959Z,2.92
2023-03-22T06:34:08.542Z,2.95
2023-03-22T06:36:43.164Z,3.08
2023-03-22T06:39:23.885Z,3.10
2023-03-22T06:41:52.000Z,1.85
2023-03-22T06:44:19.429Z,2.75
2023-03-22T06:46:52.155Z,2.13
2023-03-22T06:49:42.247Z,2.42
2023-03-22T06:52:15.157Z,2.53
2023-03-22T06:54:42.243Z,2.95
2023-03-22T06:57:10.440Z,2.97
2023-03-22T06:59:37.532Z,3.00
2023-03-22T07:02:04.666Z,3.42
2023-03-22T07:04:33.295Z,2.70
2023-03-22T07:07:02.161Z,2.97
2023-03-22T07:09:29.908Z,2.80
2023-03-22T07:11:59.466Z,2.67
2023-03-22T07:14:26.262Z,3.47
2023-03-22T07:17:00.746Z,2.65
2023-03-22T07:19:30.394Z,1.70
2023-03-22T07:21:58.792Z,5.05
2023-03-22T07:24:26.190Z,2.35
2023-03-22T07:26:53.183Z,2.03
2023-03-22T07:29:24.291Z,2.63
2023-03-22T07:31:51.239Z,2.45
2023-03-22T07:34:24.388Z,2.30
2023-03-22T07:37:03.356Z,2.55
2023-03-22T07:39:31.234Z,2.53
2023-03-22T07:41:58.515Z,2.17
2023-03-22T07:44:25.488Z,1.90
2023-03-22T07:47:40.287Z,2.20
2023-03-22T07:50:39.047Z,2.33
2023-03-22T07:53:06.330Z,2.92
2023-03-22T07:55:35.480Z,3.35
2023-03-22T07:58:02.771Z,2.10
2023-03-22T08:00:30.145Z,2.40
2023-03-22T08:03:19.921Z,2.55
2023-03-22T08:06:08.159Z,2.72
2023-03-22T08:08:37.395Z,3.53
2023-03-22T08:11:06.678Z,2.47
2023-03-22T08:13:34.345Z,2.95
2023-03-22T08:16:01.849Z,2.83
2023-03-22T08:18:30.540Z,3.67
2023-03-22T08:20:58.957Z,2.97
2023-03-22T08:23:40.536Z,3.13
2023-03-22T08:26:20.259Z,2.67
2023-03-22T08:28:47.170Z,3.13
2023-03-22T08:31:15.838Z,3.38
2023-03-22T08:33:45.033Z,2.92
2023-03-22T08:36:18.041Z,3.38
2023-03-22T08:38:50.473Z,3.03
2023-03-22T08:41:23.662Z,4.03
2023-03-22T08:43:51.056Z,3.20
2023-03-22T08:46:18.053Z,2.55
2023-03-22T08:48:50.834Z,6.15
2023-03-22T08:51:24.012Z,3.05
2023-03-22T08:54:04.108Z,3.67
2023-03-22T08:56:50.264Z,3.67
2023-03-22T08:59:34.075Z,3.40
2023-03-22T09:02:20.212Z,3.60
2023-03-22T09:04:47.635Z,3.05
2023-03-22T09:07:14.693Z,3.55
2023-03-22T09:09:46.925Z,3.85
2023-03-22T09:12:13.871Z,2.75
2023-03-22T09:14:40.884Z,2.40
2023-03-22T09:17:08.060Z,3.08
2023-03-22T09:19:35.906Z,4.20
2023-03-22T09:22:03.502Z,3.50
2023-03-22T09:24:38.834Z,4.10
2023-03-22T09:27:05.813Z,2.92
2023-03-22T09:29:32.756Z,3.78
2023-03-22T09:32:03.044Z,3.83
2023-03-22T09:34:33.461Z,4.32
2023-03-22T09:37:02.518Z,4.15
2023-03-22T09:39:38.611Z,4.00
2023-03-22T09:42:11.008Z,3.80
2023-03-22T09:44:42.040Z,3.65
2023-03-22T09:47:44.286Z,4.72
2023-03-22T09:50:28.437Z,4.57
2023-03-22T09:52:55.514Z,4.45
2023-03-22T09:55:31.002Z,4.00
2023-03-22T09:58:06.241Z,4.28
2023-03-22T10:00:51.865Z,4.47
2023-03-22T10:03:29.124Z,4.97
2023-03-22T10:06:05.600Z,5.07
2023-03-22T10:08:52.708Z,4.13
2023-03-22T10:11:39.620Z,4.95
2023-03-22T10:14:12.434Z,5.00
2023-03-22T10:16:39.867Z,4.22
2023-03-22T10:19:51.715Z,4.57
2023-03-22T10:22:25.057Z,4.18
2023-03-22T10:24:52.995Z,4.85
2023-03-22T10:27:21.933Z,4.55
2023-03-22T10:30:10.472Z,3.97
2023-03-22T10:33:00.733Z,6.03
2023-03-22T10:35:28.350Z,4.00
2023-03-22T10:37:56.542Z,4.95
2023-03-22T10:40:32.153Z,5.18
2023-03-22T10:43:22.489Z,4.47
2023-03-22T10:45:51.242Z,5.70
2023-03-22T10:48:33.104Z,5.25
2023-03-22T10:51:01.324Z,5.03
2023-03-22T10:53:37.110Z,6.63
2023-03-22T10:56:04.671Z,4.93
2023-03-22T10:58:33.457Z,4.85
2023-03-22T11:01:14.409Z,4.85
2023-03-22T11:03:43.615Z,4.82
2023-03-22T11:06:15.731Z,4.75
2023-03-22T11:08:51.815Z,4.30
2023-03-22T11:11:31.480Z,4.43
2023-03-22T11:14:13.731Z,3.97
2023-03-22T11:16:53.966Z,4.72
2023-03-22T11:19:31.717Z,4.55
2023-03-22T11:21:59.606Z,3.47
2023-03-22T11:24:31.546Z,6.22
2023-03-22T11:27:18.449Z,3.88
2023-03-22T11:29:48.412Z,4.18
2023-03-22T11:32:21.285Z,3.97
2023-03-22T11:34:48.596Z,4.75
2023-03-22T11:37:18.588Z,3.45
2023-03-22T11:39:49.872Z,4.00
2023-03-22T11:42:21.165Z,4.72
2023-03-22T11:44:48.134Z,4.53
2023-03-22T11:47:14.969Z,4.72
2023-03-22T11:49:50.617Z,5.28
2023-03-22T11:52:20.394Z,4.22
2023-03-22T11:54:47.580Z,4.18
2023-03-22T11:57:19.272Z,4.47
2023-03-22T11:59:53.878Z,4.78
2023-03-22T12:02:26.817Z,4.20
2023-03-22T12:05:01.879Z,5.75
2023-03-22T12:07:31.344Z,5.40
2023-03-22T12:10:19.036Z,4.78
2023-03-22T12:12:51.228Z,4.82
2023-03-22T12:15:21.376Z,5.03
2023-03-22T12:17:55.045Z,4.57
2023-03-22T12:20:45.725Z,3.45
2023-03-22T12:23:21.223Z,4.07
2023-03-22T12:25:52.890Z,5.72
2023-03-22T12:28:23.164Z,5.65
2023-03-22T12:30:53.292Z,4.68
2023-03-22T12:33:27.937Z,5.72
2023-03-22T12:36:00.439Z,4.68
2023-03-22T12:38:42.689Z,4.88
2023-03-22T12:41:16.175Z,5.30
2023-03-22T12:44:04.155Z,4.32
2023-03-22T12:46:38.813Z,5.95
2023-03-22T12:49:23.244Z,9.90
2023-03-22T12:51:51.984Z,5.38
2023-03-22T12:54:20.748Z,4.82
2023-03-22T12:56:48.239Z,4.32
2023-03-22T12:59:24.708Z,4.78
2023-03-22T13:01:56.409Z,5.45
2023-03-22T13:04:31.954Z,3.83
2023-03-22T13:07:09.550Z,4.25
2023-03-22T13:09:38.063Z,4.38
2023-03-22T13:12:18.049Z,3.83
2023-03-22T13:14:51.744Z,4.13
2023-03-22T13:17:25.504Z,4.78
2023-03-22T13:20:01.418Z,4.72
2023-03-22T13:22:30.179Z,5.47
2023-03-22T13:24:59.317Z,5.05
2023-03-22T13:27:36.136Z,4.60
2023-03-22T13:30:05.865Z,5.07
2023-03-22T13:32:34.050Z,5.65
2023-03-22T13:35:01.052Z,5.95
2023-03-22T13:37:55.259Z,4.95
2023-03-22T13:40:30.388Z,4.85
2023-03-22T13:43:24.230Z,5.18
2023-03-22T13:46:15.025Z,4.18
2023-03-22T13:48:49.041Z,3.90
2023-03-22T13:51:22.063Z,4.13
2023-03-22T13:56:35.505Z,4.60
2023-03-22T13:59:05.428Z,4.70
2023-03-22T14:02:04.919Z,5.18
2023-03-22T14:04:39.747Z,5.28
2023-03-22T14:07:28.817Z,5.60
2023-03-22T14:10:06.982Z,6.55
2023-03-22T14:12:53.129Z,6.03
2023-03-22T14:15:33.253Z,6.65
2023-03-22T14:18:08.907Z,7.07
2023-03-22T14:20:38.025Z,8.18
